sensor_id;sensor_type;location;lat;lon;timestamp;P1;durP1;ratioP1;P2;durP2;ratioP2
3683;SDS011;1858;48.716;9.648;2024-03-22T00:01:12;7.27;;;5.33;;
3683;SDS011;1858;48.716;9.648;2024-03-22T00:03:40;7.57;;;5.30;;
3683;SDS011;1858;48.716;9.648;2024-03-22T00:06:09;8.40;;;5.73;;
3683;SDS011;1858;48.716;9.648;2024-03-22T00:08:37;7.00;;;5.10;;
3683;SDS011;1858;48.716;9.648;2024-03-22T00:11:06;7.30;;;4.57;;
3683;SDS011;1858;48.716;9.648;2024-03-22T00:13:34;7.43;;;4.73;;
3683;SDS011;1858;48.716;9.648;2024-03-22T00:16:03;6.87;;;5.03;;
3683;SDS011;1858;48.716;9.648;2024-03-22T00:18:31;7.93;;;5.53;;
3683;SDS011;1858;48.716;9.648;2024-03-22T00:21:00;6.80;;;4.33;;
3683;SDS011;1858;48.716;9.648;2024-03-22T00:23:29;5.60;;;5.00;;
3683;SDS011;1858;48.716;9.648;2024-03-22T00:25:57;6.80;;;4.57;;
3683;SDS011;1858;48.716;9.648;2024-03-22T00:31:14;7.50;;;4.40;;
3683;SDS011;1858;48.716;9.648;2024-03-22T00:33:43;10.60;;;4.90;;
3683;SDS011;1858;48.716;9.648;2024-03-22T00:36:11;7.70;;;4.80;;
3683;SDS011;1858;48.716;9.648;2024-03-22T00:38:40;11.07;;;4.73;;
3683;SDS011;1858;48.716;9.648;2024-03-22T00:41:08;9.20;;;5.60;;
3683;SDS011;1858;48.716;9.648;2024-03-22T00:43:37;9.50;;;6.43;;
3683;SDS011;1858;48.716;9.648;2024-03-22T00:46:05;7.33;;;4.60;;
3683;SDS011;1858;48.716;9.648;2024-03-22T00:48:34;9.07;;;7.03;;
3683;SDS011;1858;48.716;9.648;2024-03-22T00:51:03;9.17;;;6.40;;
3683;SDS011;1858;48.716;9.648;2024-03-22T00:53:31;11.73;;;5.30;;
3683;SDS011;1858;48.716;9.648;2024-03-22T00:56:00;9.83;;;5.07;;
3683;SDS011;1858;48.716;9.648;2024-03-22T00:58:28;6.77;;;5.67;;
3683;SDS011;1858;48.716;9.648;2024-03-22T01:00:58;9.97;;;5.53;;
3683;SDS011;1858;48.716;9.648;2024-03-22T01:03:27;8.70;;;5.63;;
3683;SDS011;1858;48.716;9.648;2024-03-22T01:05:55;8.40;;;4.50;;
3683;SDS011;1858;48.716;9.648;2024-03-22T01:08:24;7.07;;;5.20;;
3683;SDS011;1858;48.716;9.648;2024-03-22T01:10:52;6.20;;;4.23;;
3683;SDS011;1858;48.716;9.648;2024-03-22T01:13:21;8.20;;;5.30;;
3683;SDS011;1858;48.716;9.648;2024-03-22T01:15:49;13.20;;;7.60;;
3683;SDS011;1858;48.716;9.648;2024-03-22T01:18:18;10.93;;;6.17;;
3683;SDS011;1858;48.716;9.648;2024-03-22T01:20:47;7.93;;;5.17;;
3683;SDS011;1858;48.716;9.648;2024-03-22T01:23:16;12.77;;;6.50;;
3683;SDS011;1858;48.716;9.648;2024-03-22T01:25:45;6.90;;;5.30;;
3683;SDS011;1858;48.716;9.648;2024-03-22T01:31:01;10.27;;;6.27;;
3683;SDS011;1858;48.716;9.648;2024-03-22T01:33:29;8.93;;;6.13;;
3683;SDS011;1858;48.716;9.648;2024-03-22T01:35:58;7.60;;;5.57;;
3683;SDS011;1858;48.716;9.648;2024-03-22T01:38:26;7.00;;;4.93;;
3683;SDS011;1858;48.716;9.648;2024-03-22T01:40:54;14.67;;;5.93;;
3683;SDS011;1858;48.716;9.648;2024-03-22T01:43:23;7.47;;;5.50;;
3683;SDS011;1858;48.716;9.648;2024-03-22T01:45:51;11.43;;;5.87;;
3683;SDS011;1858;48.716;9.648;2024-03-22T01:48:20;12.40;;;5.53;;
3683;SDS011;1858;48.716;9.648;2024-03-22T01:50:48;9.60;;;6.20;;
3683;SDS011;1858;48.716;9.648;2024-03-22T01:53:17;8.90;;;5.90;;
3683;SDS011;1858;48.716;9.648;2024-03-22T01:55:47;11.70;;;5.90;;
3683;SDS011;1858;48.716;9.648;2024-03-22T01:58:15;8.17;;;5.73;;
3683;SDS011;1858;48.716;9.648;2024-03-22T02:00:45;10.70;;;5.60;;
3683;SDS011;1858;48.716;9.648;2024-03-22T02:03:14;8.53;;;5.87;;
3683;SDS011;1858;48.716;9.648;2024-03-22T02:05:42;8.10;;;5.77;;
3683;SDS011;1858;48.716;9.648;2024-03-22T02:08:10;7.23;;;4.80;;
3683;SDS011;1858;48.716;9.648;2024-03-22T02:10:39;5.33;;;4.83;;
3683;SDS011;1858;48.716;9.648;2024-03-22T02:13:07;10.70;;;5.57;;
3683;SDS011;1858;48.716;9.648;2024-03-22T02:15:36;10.13;;;6.10;;
3683;SDS011;1858;48.716;9.648;2024-03-22T02:18:05;15.30;;;5.80;;
3683;SDS011;1858;48.716;9.648;2024-03-22T02:20:33;9.57;;;7.10;;
3683;SDS011;1858;48.716;9.648;2024-03-22T02:23:02;10.73;;;6.10;;
3683;SDS011;1858;48.716;9.648;2024-03-22T02:25:30;10.20;;;6.37;;
3683;SDS011;1858;48.716;9.648;2024-03-22T02:27:59;11.13;;;7.40;;
3683;SDS011;1858;48.716;9.648;2024-03-22T02:30:27;9.60;;;5.90;;
3683;SDS011;1858;48.716;9.648;2024-03-22T02:32:55;6.30;;;4.60;;
3683;SDS011;1858;48.716;9.648;2024-03-22T02:38:13;11.87;;;6.07;;
3683;SDS011;1858;48.716;9.648;2024-03-22T02:40:42;10.17;;;6.10;;
3683;SDS011;1858;48.716;9.648;2024-03-22T02:43:11;7.03;;;5.50;;
3683;SDS011;1858;48.716;9.648;2024-03-22T02:45:40;10.30;;;5.70;;
3683;SDS011;1858;48.716;9.648;2024-03-22T02:48:08;7.70;;;4.87;;
3683;SDS011;1858;48.716;9.648;2024-03-22T02:50:37;13.50;;;6.23;;
3683;SDS011;1858;48.716;9.648;2024-03-22T02:53:06;8.90;;;5.40;;
3683;SDS011;1858;48.716;9.648;2024-03-22T02:55:41;7.07;;;5.00;;
3683;SDS011;1858;48.716;9.648;2024-03-22T02:58:09;9.63;;;5.60;;
3683;SDS011;1858;48.716;9.648;2024-03-22T03:00:38;8.50;;;5.23;;
3683;SDS011;1858;48.716;9.648;2024-03-22T03:03:07;8.90;;;5.40;;
3683;SDS011;1858;48.716;9.648;2024-03-22T03:05:35;10.37;;;6.10;;
3683;SDS011;1858;48.716;9.648;2024-03-22T03:08:03;11.97;;;5.87;;
3683;SDS011;1858;48.716;9.648;2024-03-22T03:10:32;10.60;;;6.43;;
3683;SDS011;1858;48.716;9.648;2024-03-22T03:15:48;7.83;;;4.93;;
3683;SDS011;1858;48.716;9.648;2024-03-22T03:18:16;18.40;;;6.63;;
3683;SDS011;1858;48.716;9.648;2024-03-22T03:20:45;9.53;;;5.87;;
3683;SDS011;1858;48.716;9.648;2024-03-22T03:23:13;9.67;;;5.40;;
3683;SDS011;1858;48.716;9.648;2024-03-22T03:25:41;9.37;;;6.30;;
3683;SDS011;1858;48.716;9.648;2024-03-22T03:28:10;7.67;;;5.60;;
3683;SDS011;1858;48.716;9.648;2024-03-22T03:30:39;9.80;;;6.27;;
3683;SDS011;1858;48.716;9.648;2024-03-22T03:33:08;6.77;;;4.63;;
3683;SDS011;1858;48.716;9.648;2024-03-22T03:35:36;9.13;;;5.43;;
3683;SDS011;1858;48.716;9.648;2024-03-22T03:38:05;8.27;;;5.30;;
3683;SDS011;1858;48.716;9.648;2024-03-22T03:40:34;7.53;;;5.40;;
3683;SDS011;1858;48.716;9.648;2024-03-22T03:43:03;10.87;;;6.93;;
3683;SDS011;1858;48.716;9.648;2024-03-22T03:45:31;10.90;;;5.80;;
3683;SDS011;1858;48.716;9.648;2024-03-22T03:47:59;10.20;;;7.23;;
3683;SDS011;1858;48.716;9.648;2024-03-22T03:50:28;15.00;;;7.20;;
3683;SDS011;1858;48.716;9.648;2024-03-22T03:52:57;10.63;;;7.40;;
3683;SDS011;1858;48.716;9.648;2024-03-22T03:55:26;9.90;;;6.90;;
3683;SDS011;1858;48.716;9.648;2024-03-22T03:57:54;9.40;;;7.33;;
3683;SDS011;1858;48.716;9.648;2024-03-22T04:00:23;9.30;;;8.33;;
3683;SDS011;1858;48.716;9.648;2024-03-22T04:02:51;10.40;;;5.97;;
3683;SDS011;1858;48.716;9.648;2024-03-22T04:05:19;13.60;;;6.30;;
3683;SDS011;1858;48.716;9.648;2024-03-22T04:07:48;10.90;;;6.17;;
3683;SDS011;1858;48.716;9.648;2024-03-22T04:10:16;8.20;;;5.37;;
3683;SDS011;1858;48.716;9.648;2024-03-22T04:12:45;10.50;;;5.63;;
3683;SDS011;1858;48.716;9.648;2024-03-22T04:15:13;10.57;;;5.97;;
3683;SDS011;1858;48.716;9.648;2024-03-22T04:17:41;10.77;;;5.40;;
3683;SDS011;1858;48.716;9.648;2024-03-22T04:22:57;9.10;;;6.13;;
3683;SDS011;1858;48.716;9.648;2024-03-22T04:25:26;12.07;;;7.00;;
3683;SDS011;1858;48.716;9.648;2024-03-22T04:27:54;11.77;;;5.97;;
3683;SDS011;1858;48.716;9.648;2024-03-22T04:30:23;9.00;;;6.10;;
3683;SDS011;1858;48.716;9.648;2024-03-22T04:32:51;9.40;;;6.00;;
3683;SDS011;1858;48.716;9.648;2024-03-22T04:35:19;12.73;;;7.53;;
3683;SDS011;1858;48.716;9.648;2024-03-22T04:37:48;10.30;;;8.00;;
3683;SDS011;1858;48.716;9.648;2024-03-22T04:40:16;8.40;;;5.83;;
3683;SDS011;1858;48.716;9.648;2024-03-22T04:42:44;9.50;;;6.33;;
3683;SDS011;1858;48.716;9.648;2024-03-22T04:45:13;10.27;;;5.70;;
3683;SDS011;1858;48.716;9.648;2024-03-22T04:47:41;11.40;;;7.00;;
3683;SDS011;1858;48.716;9.648;2024-03-22T04:50:10;13.60;;;6.10;;
3683;SDS011;1858;48.716;9.648;2024-03-22T04:52:41;9.47;;;5.83;;
3683;SDS011;1858;48.716;9.648;2024-03-22T04:55:09;11.60;;;7.20;;
3683;SDS011;1858;48.716;9.648;2024-03-22T04:57:37;11.60;;;8.00;;
3683;SDS011;1858;48.716;9.648;2024-03-22T05:00:06;9.87;;;6.60;;
3683;SDS011;1858;48.716;9.648;2024-03-22T05:02:35;12.27;;;7.40;;
3683;SDS011;1858;48.716;9.648;2024-03-22T05:05:04;12.03;;;7.57;;
3683;SDS011;1858;48.716;9.648;2024-03-22T05:07:34;11.30;;;7.20;;
3683;SDS011;1858;48.716;9.648;2024-03-22T05:10:03;12.80;;;7.00;;
3683;SDS011;1858;48.716;9.648;2024-03-22T05:12:32;9.03;;;6.17;;
3683;SDS011;1858;48.716;9.648;2024-03-22T05:15:02;10.00;;;6.43;;
3683;SDS011;1858;48.716;9.648;2024-03-22T05:17:31;13.13;;;7.37;;
3683;SDS011;1858;48.716;9.648;2024-03-22T05:20:00;8.40;;;5.90;;
3683;SDS011;1858;48.716;9.648;2024-03-22T05:22:29;10.17;;;6.97;;
3683;SDS011;1858;48.716;9.648;2024-03-22T05:24:57;10.97;;;7.10;;
3683;SDS011;1858;48.716;9.648;2024-03-22T05:27:26;9.57;;;6.40;;
3683;SDS011;1858;48.716;9.648;2024-03-22T05:29:54;9.50;;;6.77;;
3683;SDS011;1858;48.716;9.648;2024-03-22T05:32:22;8.57;;;6.50;;
3683;SDS011;1858;48.716;9.648;2024-03-22T05:34:52;9.50;;;5.63;;
3683;SDS011;1858;48.716;9.648;2024-03-22T05:37:20;12.70;;;6.67;;
3683;SDS011;1858;48.716;9.648;2024-03-22T05:39:49;8.57;;;6.13;;
3683;SDS011;1858;48.716;9.648;2024-03-22T05:42:17;14.03;;;7.80;;
3683;SDS011;1858;48.716;9.648;2024-03-22T05:44:45;13.23;;;7.77;;
3683;SDS011;1858;48.716;9.648;2024-03-22T05:47:15;11.47;;;6.80;;
3683;SDS011;1858;48.716;9.648;2024-03-22T05:49:43;11.17;;;6.90;;
3683;SDS011;1858;48.716;9.648;2024-03-22T05:52:11;9.90;;;7.27;;
3683;SDS011;1858;48.716;9.648;2024-03-22T05:54:40;11.60;;;8.00;;
3683;SDS011;1858;48.716;9.648;2024-03-22T05:57:08;10.57;;;6.77;;
3683;SDS011;1858;48.716;9.648;2024-03-22T05:59:37;9.63;;;7.03;;
3683;SDS011;1858;48.716;9.648;2024-03-22T06:02:05;10.50;;;7.20;;
3683;SDS011;1858;48.716;9.648;2024-03-22T06:04:34;11.80;;;7.50;;
3683;SDS011;1858;48.716;9.648;2024-03-22T06:07:03;10.00;;;7.63;;
3683;SDS011;1858;48.716;9.648;2024-03-22T06:09:33;15.30;;;9.13;;
3683;SDS011;1858;48.716;9.648;2024-03-22T06:14:51;11.50;;;7.90;;
3683;SDS011;1858;48.716;9.648;2024-03-22T06:17:19;7.70;;;6.17;;
3683;SDS011;1858;48.716;9.648;2024-03-22T06:19:47;10.00;;;6.90;;
3683;SDS011;1858;48.716;9.648;2024-03-22T06:22:16;19.97;;;8.57;;
3683;SDS011;1858;48.716;9.648;2024-03-22T06:24:44;13.53;;;8.13;;
3683;SDS011;1858;48.716;9.648;2024-03-22T06:30:00;12.07;;;7.20;;
3683;SDS011;1858;48.716;9.648;2024-03-22T06:32:30;18.90;;;10.47;;
3683;SDS011;1858;48.716;9.648;2024-03-22T06:34:58;14.73;;;8.30;;
3683;SDS011;1858;48.716;9.648;2024-03-22T06:37:27;14.63;;;7.33;;
3683;SDS011;1858;48.716;9.648;2024-03-22T06:39:57;13.70;;;7.37;;
3683;SDS011;1858;48.716;9.648;2024-03-22T06:42:25;12.17;;;7.40;;
3683;SDS011;1858;48.716;9.648;2024-03-22T06:44:54;9.00;;;6.53;;
3683;SDS011;1858;48.716;9.648;2024-03-22T06:47:22;12.37;;;7.30;;
3683;SDS011;1858;48.716;9.648;2024-03-22T06:49:54;12.50;;;7.93;;
3683;SDS011;1858;48.716;9.648;2024-03-22T06:52:25;11.77;;;7.43;;
3683;SDS011;1858;48.716;9.648;2024-03-22T06:54:52;16.10;;;7.97;;
3683;SDS011;1858;48.716;9.648;2024-03-22T06:57:20;14.60;;;6.90;;
3683;SDS011;1858;48.716;9.648;2024-03-22T06:59:49;12.80;;;7.80;;
3683;SDS011;1858;48.716;9.648;2024-03-22T07:02:17;10.37;;;7.83;;
3683;SDS011;1858;48.716;9.648;2024-03-22T07:04:46;14.07;;;8.97;;
3683;SDS011;1858;48.716;9.648;2024-03-22T07:07:14;15.70;;;8.87;;
3683;SDS011;1858;48.716;9.648;2024-03-22T07:09:42;11.30;;;8.00;;
3683;SDS011;1858;48.716;9.648;2024-03-22T07:12:11;15.93;;;9.27;;
3683;SDS011;1858;48.716;9.648;2024-03-22T07:14:39;11.67;;;7.90;;
3683;SDS011;1858;48.716;9.648;2024-03-22T07:17:08;11.00;;;8.30;;
3683;SDS011;1858;48.716;9.648;2024-03-22T07:19:36;15.40;;;10.00;;
3683;SDS011;1858;48.716;9.648;2024-03-22T07:22:04;12.30;;;8.43;;
3683;SDS011;1858;48.716;9.648;2024-03-22T07:24:33;13.10;;;8.70;;
3683;SDS011;1858;48.716;9.648;2024-03-22T07:27:02;15.70;;;8.43;;
3683;SDS011;1858;48.716;9.648;2024-03-22T07:29:30;14.10;;;10.57;;
3683;SDS011;1858;48.716;9.648;2024-03-22T07:31:59;12.73;;;8.47;;
3683;SDS011;1858;48.716;9.648;2024-03-22T07:34:27;14.80;;;9.50;;
3683;SDS011;1858;48.716;9.648;2024-03-22T07:36:57;13.63;;;8.83;;
3683;SDS011;1858;48.716;9.648;2024-03-22T07:39:26;12.77;;;7.80;;
3683;SDS011;1858;48.716;9.648;2024-03-22T07:41:54;18.43;;;8.63;;
3683;SDS011;1858;48.716;9.648;2024-03-22T07:44:23;11.90;;;7.90;;
3683;SDS011;1858;48.716;9.648;2024-03-22T07:46:53;11.37;;;8.40;;
3683;SDS011;1858;48.716;9.648;2024-03-22T07:49:21;14.43;;;9.67;;
3683;SDS011;1858;48.716;9.648;2024-03-22T07:54:37;12.37;;;8.07;;
3683;SDS011;1858;48.716;9.648;2024-03-22T07:57:06;12.97;;;9.07;;
3683;SDS011;1858;48.716;9.648;2024-03-22T07:59:36;13.70;;;7.80;;
3683;SDS011;1858;48.716;9.648;2024-03-22T08:02:05;11.00;;;8.80;;
3683;SDS011;1858;48.716;9.648;2024-03-22T08:04:33;13.77;;;8.30;;
3683;SDS011;1858;48.716;9.648;2024-03-22T08:07:02;14.37;;;8.50;;
3683;SDS011;1858;48.716;9.648;2024-03-22T08:09:31;11.30;;;9.00;;
3683;SDS011;1858;48.716;9.648;2024-03-22T08:11:59;13.23;;;8.87;;
3683;SDS011;1858;48.716;9.648;2024-03-22T08:14:27;11.53;;;8.20;;
3683;SDS011;1858;48.716;9.648;2024-03-22T08:16:56;13.73;;;8.73;;
3683;SDS011;1858;48.716;9.648;2024-03-22T08:19:24;12.87;;;9.13;;
3683;SDS011;1858;48.716;9.648;2024-03-22T08:21:52;11.40;;;7.60;;
3683;SDS011;1858;48.716;9.648;2024-03-22T08:24:21;10.83;;;7.83;;
3683;SDS011;1858;48.716;9.648;2024-03-22T08:26:49;10.67;;;7.40;;
3683;SDS011;1858;48.716;9.648;2024-03-22T08:29:18;20.93;;;8.73;;
3683;SDS011;1858;48.716;9.648;2024-03-22T08:31:46;11.10;;;8.23;;
3683;SDS011;1858;48.716;9.648;2024-03-22T08:34:14;13.33;;;8.57;;
3683;SDS011;1858;48.716;9.648;2024-03-22T08:36:43;17.10;;;7.73;;
3683;SDS011;1858;48.716;9.648;2024-03-22T08:39:11;14.30;;;8.60;;
3683;SDS011;1858;48.716;9.648;2024-03-22T08:41:40;11.67;;;7.60;;
3683;SDS011;1858;48.716;9.648;2024-03-22T08:44:08;11.63;;;7.60;;
3683;SDS011;1858;48.716;9.648;2024-03-22T08:46:36;10.70;;;7.73;;
3683;SDS011;1858;48.716;9.648;2024-03-22T08:49:05;12.20;;;7.93;;
3683;SDS011;1858;48.716;9.648;2024-03-22T08:51:33;12.03;;;8.40;;
3683;SDS011;1858;48.716;9.648;2024-03-22T08:54:02;12.80;;;7.33;;
3683;SDS011;1858;48.716;9.648;2024-03-22T08:56:31;9.60;;;7.27;;
3683;SDS011;1858;48.716;9.648;2024-03-22T08:59:00;14.17;;;6.43;;
3683;SDS011;1858;48.716;9.648;2024-03-22T09:01:28;11.57;;;7.00;;
3683;SDS011;1858;48.716;9.648;2024-03-22T09:03:57;10.83;;;6.67;;
3683;SDS011;1858;48.716;9.648;2024-03-22T09:06:25;9.43;;;7.37;;
3683;SDS011;1858;48.716;9.648;2024-03-22T09:08:56;8.83;;;6.80;;
3683;SDS011;1858;48.716;9.648;2024-03-22T09:11:24;9.53;;;6.53;;
3683;SDS011;1858;48.716;9.648;2024-03-22T09:13:53;9.43;;;6.90;;
3683;SDS011;1858;48.716;9.648;2024-03-22T09:16:22;12.20;;;7.90;;
3683;SDS011;1858;48.716;9.648;2024-03-22T09:18:51;8.17;;;5.80;;
3683;SDS011;1858;48.716;9.648;2024-03-22T09:21:19;7.83;;;5.87;;
3683;SDS011;1858;48.716;9.648;2024-03-22T09:26:36;7.83;;;6.83;;
3683;SDS011;1858;48.716;9.648;2024-03-22T09:29:04;8.53;;;6.80;;
3683;SDS011;1858;48.716;9.648;2024-03-22T09:31:33;9.33;;;6.67;;
3683;SDS011;1858;48.716;9.648;2024-03-22T09:34:02;7.77;;;5.90;;
3683;SDS011;1858;48.716;9.648;2024-03-22T09:36:30;8.23;;;6.30;;
3683;SDS011;1858;48.716;9.648;2024-03-22T09:39:01;8.93;;;6.20;;
3683;SDS011;1858;48.716;9.648;2024-03-22T09:41:31;6.60;;;5.30;;
3683;SDS011;1858;48.716;9.648;2024-03-22T09:44:00;6.00;;;5.17;;
3683;SDS011;1858;48.716;9.648;2024-03-22T09:46:31;6.93;;;5.13;;
3683;SDS011;1858;48.716;9.648;2024-03-22T09:49:20;7.47;;;5.47;;
3683;SDS011;1858;48.716;9.648;2024-03-22T09:51:50;8.50;;;5.03;;
3683;SDS011;1858;48.716;9.648;2024-03-22T09:54:20;7.27;;;4.87;;
3683;SDS011;1858;48.716;9.648;2024-03-22T09:56:51;5.83;;;4.70;;
3683;SDS011;1858;48.716;9.648;2024-03-22T09:59:21;8.00;;;5.53;;
3683;SDS011;1858;48.716;9.648;2024-03-22T10:01:50;7.90;;;4.97;;
3683;SDS011;1858;48.716;9.648;2024-03-22T10:04:20;5.30;;;4.00;;
3683;SDS011;1858;48.716;9.648;2024-03-22T10:06:48;7.93;;;5.20;;
3683;SDS011;1858;48.716;9.648;2024-03-22T10:09:17;5.60;;;4.07;;
3683;SDS011;1858;48.716;9.648;2024-03-22T10:11:45;7.10;;;4.43;;
3683;SDS011;1858;48.716;9.648;2024-03-22T10:14:15;4.97;;;4.20;;
3683;SDS011;1858;48.716;9.648;2024-03-22T10:16:43;9.20;;;3.17;;
3683;SDS011;1858;48.716;9.648;2024-03-22T10:19:11;4.30;;;2.97;;
3683;SDS011;1858;48.716;9.648;2024-03-22T10:21:40;5.93;;;4.23;;
3683;SDS011;1858;48.716;9.648;2024-03-22T10:24:08;4.40;;;3.00;;
3683;SDS011;1858;48.716;9.648;2024-03-22T10:26:37;6.50;;;4.00;;
3683;SDS011;1858;48.716;9.648;2024-03-22T10:29:08;5.83;;;3.73;;
3683;SDS011;1858;48.716;9.648;2024-03-22T10:31:38;5.97;;;3.50;;
3683;SDS011;1858;48.716;9.648;2024-03-22T10:34:07;6.53;;;3.40;;
3683;SDS011;1858;48.716;9.648;2024-03-22T10:36:56;7.53;;;3.40;;
3683;SDS011;1858;48.716;9.648;2024-03-22T10:39:26;6.10;;;3.80;;
3683;SDS011;1858;48.716;9.648;2024-03-22T10:41:55;6.07;;;3.87;;
3683;SDS011;1858;48.716;9.648;2024-03-22T10:44:24;5.73;;;3.67;;
3683;SDS011;1858;48.716;9.648;2024-03-22T10:46:52;7.53;;;3.60;;
3683;SDS011;1858;48.716;9.648;2024-03-22T10:49:23;6.33;;;4.73;;
3683;SDS011;1858;48.716;9.648;2024-03-22T10:51:57;6.03;;;4.10;;
3683;SDS011;1858;48.716;9.648;2024-03-22T10:54:32;4.97;;;3.93;;
3683;SDS011;1858;48.716;9.648;2024-03-22T10:57:01;7.73;;;3.97;;
3683;SDS011;1858;48.716;9.648;2024-03-22T10:59:33;5.77;;;3.17;;
3683;SDS011;1858;48.716;9.648;2024-03-22T11:02:02;7.10;;;3.50;;
3683;SDS011;1858;48.716;9.648;2024-03-22T11:04:33;3.90;;;2.83;;
3683;SDS011;1858;48.716;9.648;2024-03-22T11:07:02;4.50;;;3.10;;
3683;SDS011;1858;48.716;9.648;2024-03-22T11:09:30;4.00;;;2.97;;
3683;SDS011;1858;48.716;9.648;2024-03-22T11:11:59;4.83;;;3.30;;
3683;SDS011;1858;48.716;9.648;2024-03-22T11:14:27;4.60;;;3.13;;
3683;SDS011;1858;48.716;9.648;2024-03-22T11:16:56;7.80;;;3.17;;
3683;SDS011;1858;48.716;9.648;2024-03-22T11:19:24;5.73;;;3.00;;
3683;SDS011;1858;48.716;9.648;2024-03-22T11:21:52;8.20;;;3.10;;
3683;SDS011;1858;48.716;9.648;2024-03-22T11:24:22;5.57;;;3.53;;
3683;SDS011;1858;48.716;9.648;2024-03-22T11:26:50;5.10;;;3.40;;
3683;SDS011;1858;48.716;9.648;2024-03-22T11:29:19;4.90;;;2.93;;
3683;SDS011;1858;48.716;9.648;2024-03-22T11:31:47;6.87;;;3.60;;
3683;SDS011;1858;48.716;9.648;2024-03-22T11:34:16;6.30;;;2.60;;
3683;SDS011;1858;48.716;9.648;2024-03-22T11:36:44;5.73;;;3.23;;
3683;SDS011;1858;48.716;9.648;2024-03-22T11:39:13;5.00;;;3.17;;
3683;SDS011;1858;48.716;9.648;2024-03-22T11:41:41;5.97;;;3.50;;
3683;SDS011;1858;48.716;9.648;2024-03-22T11:44:09;6.00;;;3.37;;
3683;SDS011;1858;48.716;9.648;2024-03-22T11:46:38;5.03;;;2.93;;
3683;SDS011;1858;48.716;9.648;2024-03-22T11:49:07;4.57;;;2.60;;
3683;SDS011;1858;48.716;9.648;2024-03-22T11:51:35;4.83;;;3.50;;
3683;SDS011;1858;48.716;9.648;2024-03-22T11:54:04;5.33;;;2.83;;
3683;SDS011;1858;48.716;9.648;2024-03-22T11:56:34;4.57;;;3.10;;
3683;SDS011;1858;48.716;9.648;2024-03-22T11:59:03;3.67;;;2.63;;
3683;SDS011;1858;48.716;9.648;2024-03-22T12:01:31;7.93;;;3.03;;
3683;SDS011;1858;48.716;9.648;2024-03-22T12:04:00;4.83;;;2.87;;
3683;SDS011;1858;48.716;9.648;2024-03-22T12:06:29;4.77;;;3.60;;
3683;SDS011;1858;48.716;9.648;2024-03-22T12:08:57;4.87;;;3.00;;
3683;SDS011;1858;48.716;9.648;2024-03-22T12:11:26;4.40;;;3.70;;
3683;SDS011;1858;48.716;9.648;2024-03-22T12:13:55;7.03;;;4.13;;
3683;SDS011;1858;48.716;9.648;2024-03-22T12:16:23;6.70;;;3.90;;
3683;SDS011;1858;48.716;9.648;2024-03-22T12:21:39;6.10;;;4.23;;
3683;SDS011;1858;48.716;9.648;2024-03-22T12:24:08;6.07;;;4.37;;
3683;SDS011;1858;48.716;9.648;2024-03-22T12:26:36;9.10;;;2.80;;
3683;SDS011;1858;48.716;9.648;2024-03-22T12:31:52;6.43;;;2.60;;
3683;SDS011;1858;48.716;9.648;2024-03-22T12:34:21;4.53;;;2.53;;
3683;SDS011;1858;48.716;9.648;2024-03-22T12:36:49;4.83;;;2.50;;
3683;SDS011;1858;48.716;9.648;2024-03-22T12:39:18;3.70;;;2.27;;
3683;SDS011;1858;48.716;9.648;2024-03-22T12:41:46;6.33;;;2.90;;
3683;SDS011;1858;48.716;9.648;2024-03-22T12:44:15;3.80;;;1.90;;
3683;SDS011;1858;48.716;9.648;2024-03-22T12:46:44;3.27;;;2.50;;
3683;SDS011;1858;48.716;9.648;2024-03-22T12:49:12;6.17;;;2.67;;
3683;SDS011;1858;48.716;9.648;2024-03-22T12:51:41;6.77;;;2.80;;
3683;SDS011;1858;48.716;9.648;2024-03-22T12:56:57;6.10;;;3.07;;
3683;SDS011;1858;48.716;9.648;2024-03-22T12:59:25;3.00;;;1.97;;
3683;SDS011;1858;48.716;9.648;2024-03-22T13:01:54;3.30;;;2.13;;
3683;SDS011;1858;48.716;9.648;2024-03-22T13:04:22;3.40;;;2.10;;
3683;SDS011;1858;48.716;9.648;2024-03-22T13:06:51;4.87;;;3.00;;
3683;SDS011;1858;48.716;9.648;2024-03-22T13:12:08;4.40;;;2.87;;
3683;SDS011;1858;48.716;9.648;2024-03-22T13:14:36;4.00;;;2.33;;
3683;SDS011;1858;48.716;9.648;2024-03-22T13:17:05;3.43;;;2.10;;
3683;SDS011;1858;48.716;9.648;2024-03-22T13:19:35;4.93;;;2.70;;
3683;SDS011;1858;48.716;9.648;2024-03-22T13:22:03;3.30;;;2.47;;
3683;SDS011;1858;48.716;9.648;2024-03-22T13:24:31;4.80;;;2.93;;
3683;SDS011;1858;48.716;9.648;2024-03-22T13:27:02;4.77;;;2.53;;
3683;SDS011;1858;48.716;9.648;2024-03-22T13:29:30;4.53;;;2.53;;
3683;SDS011;1858;48.716;9.648;2024-03-22T13:31:59;4.50;;;2.40;;
3683;SDS011;1858;48.716;9.648;2024-03-22T13:34:27;7.03;;;2.47;;
3683;SDS011;1858;48.716;9.648;2024-03-22T13:36:55;4.70;;;2.80;;
3683;SDS011;1858;48.716;9.648;2024-03-22T13:39:24;3.10;;;2.07;;
3683;SDS011;1858;48.716;9.648;2024-03-22T13:41:52;4.03;;;2.43;;
3683;SDS011;1858;48.716;9.648;2024-03-22T13:44:20;4.27;;;2.40;;
3683;SDS011;1858;48.716;9.648;2024-03-22T13:46:50;5.10;;;3.10;;
3683;SDS011;1858;48.716;9.648;2024-03-22T13:49:19;5.60;;;2.80;;
3683;SDS011;1858;48.716;9.648;2024-03-22T13:51:48;3.80;;;2.40;;
3683;SDS011;1858;48.716;9.648;2024-03-22T13:54:16;4.20;;;2.60;;
3683;SDS011;1858;48.716;9.648;2024-03-22T13:56:45;6.60;;;2.70;;
3683;SDS011;1858;48.716;9.648;2024-03-22T13:59:14;4.70;;;2.40;;
3683;SDS011;1858;48.716;9.648;2024-03-22T14:01:42;4.57;;;2.60;;
3683;SDS011;1858;48.716;9.648;2024-03-22T14:04:12;4.87;;;2.20;;
3683;SDS011;1858;48.716;9.648;2024-03-22T14:06:43;3.73;;;2.07;;
3683;SDS011;1858;48.716;9.648;2024-03-22T14:11:59;4.50;;;2.40;;
3683;SDS011;1858;48.716;9.648;2024-03-22T14:14:28;4.20;;;2.23;;
3683;SDS011;1858;48.716;9.648;2024-03-22T14:16:56;4.63;;;2.07;;
3683;SDS011;1858;48.716;9.648;2024-03-22T14:19:25;4.20;;;2.17;;
3683;SDS011;1858;48.716;9.648;2024-03-22T14:21:53;5.93;;;2.33;;
3683;SDS011;1858;48.716;9.648;2024-03-22T14:24:22;2.80;;;2.07;;
3683;SDS011;1858;48.716;9.648;2024-03-22T14:26:50;4.70;;;3.00;;
3683;SDS011;1858;48.716;9.648;2024-03-22T14:29:18;6.43;;;2.80;;
3683;SDS011;1858;48.716;9.648;2024-03-22T14:31:47;4.57;;;2.43;;
3683;SDS011;1858;48.716;9.648;2024-03-22T14:34:15;3.67;;;1.60;;
3683;SDS011;1858;48.716;9.648;2024-03-22T14:36:44;5.30;;;3.10;;
3683;SDS011;1858;48.716;9.648;2024-03-22T14:39:12;3.60;;;2.50;;
3683;SDS011;1858;48.716;9.648;2024-03-22T14:41:41;5.80;;;2.53;;
3683;SDS011;1858;48.716;9.648;2024-03-22T14:44:09;3.13;;;2.00;;
3683;SDS011;1858;48.716;9.648;2024-03-22T14:46:37;5.77;;;2.70;;
3683;SDS011;1858;48.716;9.648;2024-03-22T14:49:06;2.93;;;2.03;;
3683;SDS011;1858;48.716;9.648;2024-03-22T14:51:34;2.93;;;2.10;;
3683;SDS011;1858;48.716;9.648;2024-03-22T14:54:03;4.70;;;2.70;;
3683;SDS011;1858;48.716;9.648;2024-03-22T14:56:31;6.33;;;2.50;;
3683;SDS011;1858;48.716;9.648;2024-03-22T14:58:59;4.30;;;2.10;;
3683;SDS011;1858;48.716;9.648;2024-03-22T15:01:28;3.53;;;2.27;;
3683;SDS011;1858;48.716;9.648;2024-03-22T15:03:56;4.00;;;1.97;;
3683;SDS011;1858;48.716;9.648;2024-03-22T15:06:25;3.53;;;2.17;;
3683;SDS011;1858;48.716;9.648;2024-03-22T15:08:55;2.63;;;1.43;;
3683;SDS011;1858;48.716;9.648;2024-03-22T15:11:24;4.13;;;1.87;;
3683;SDS011;1858;48.716;9.648;2024-03-22T15:13:53;4.00;;;2.27;;
3683;SDS011;1858;48.716;9.648;2024-03-22T15:16:21;3.13;;;2.17;;
3683;SDS011;1858;48.716;9.648;2024-03-22T15:18:50;3.13;;;1.50;;
3683;SDS011;1858;48.716;9.648;2024-03-22T15:21:18;2.33;;;1.40;;
3683;SDS011;1858;48.716;9.648;2024-03-22T15:23:46;2.87;;;1.90;;
3683;SDS011;1858;48.716;9.648;2024-03-22T15:26:15;4.77;;;2.00;;
3683;SDS011;1858;48.716;9.648;2024-03-22T15:28:43;4.87;;;1.57;;
3683;SDS011;1858;48.716;9.648;2024-03-22T15:31:12;6.77;;;1.90;;
3683;SDS011;1858;48.716;9.648;2024-03-22T15:33:41;3.10;;;1.73;;
3683;SDS011;1858;48.716;9.648;2024-03-22T15:36:09;2.77;;;1.90;;
3683;SDS011;1858;48.716;9.648;2024-03-22T15:38:38;2.40;;;1.43;;
3683;SDS011;1858;48.716;9.648;2024-03-22T15:41:06;3.00;;;2.00;;
3683;SDS011;1858;48.716;9.648;2024-03-22T15:43:36;3.77;;;2.03;;
3683;SDS011;1858;48.716;9.648;2024-03-22T15:46:05;4.23;;;1.77;;
3683;SDS011;1858;48.716;9.648;2024-03-22T15:48:33;3.33;;;2.00;;
3683;SDS011;1858;48.716;9.648;2024-03-22T15:51:01;5.77;;;2.77;;
3683;SDS011;1858;48.716;9.648;2024-03-22T15:53:30;5.73;;;2.73;;
3683;SDS011;1858;48.716;9.648;2024-03-22T15:55:58;5.50;;;3.80;;
3683;SDS011;1858;48.716;9.648;2024-03-22T15:58:27;4.00;;;2.80;;